Nashua, Minnesota
Current Conditions -  °F | °C
As of 1:14 AM on Saturday 20 Dec 2014 (Local Time) from KY63 Reporting Station
Haze Haze  
Wind Chill: 19°   Ceiling: 500
Heat Index: 29°   Visibility: 5mi
Dew Point: 29°   Wind: 13mph
Humidity: 99%   Direction: 180°S
Pressure: 30.04"   Gusts: NA
Location:  46.04°N, 96.31°W
Report Text: KY63 200714Z AUTO 18011KT 5SM BR OVC005 M01/M02 A3004 RMK AO2 T10151017
Loading
Personal Weather Stations






























Interactive Weather Map New forecast layout! Learn more

10-Day Weather Forecast

Advertisements
Track Severe Weather on mobile